Greentop, MO (63546)

8:11 PM CDT on August 02, 2015 (GMT -0500)
APRSWXNET | | Change Station
CLOSE
Current Station
Personal Weather Station
Location: Lancaster, MO
Elevation: 931 ft
Nearby Weather Stations
Active Advisory: Severe Thunderstorm Watch

Elev 931 ft 40.52 °N, 92.52 °W | Updated 34 minutes ago

Partly Cloudy
Partly Cloudy
82 °F
Feels Like 88 °F
N
3
Wind Variable Wind from WSW
Gusts 0.0 mph

Today
High -- | Low -- °F
--% Chance of Precip.
Yesterday
High -- | Low -- °F
Precip. -- in
6:08 AM 8:23 PM
Waning Gibbous, 90% visible
Pressure 29.84 in
Visibility -9999.0 miles
Clouds Clear
Heat Index 88 °F
Dew Point 74 °F
Humidity 78%
Rainfall in
Snow Depth Not available.
UV 0 out of 12
Pollen 6.90 out of 12
Air Quality Not available.
Flu Activity Not available.
METAR KIRK 030055Z AUTO 27003KT CLR 28/22 A2985 RMK AO2 PRESRR SLP104 T02780217 PNO $

More Conditions Fewer Conditions

Pressure 29.84 in
Visibility -9999.0 miles
Clouds Clear
Heat Index 88 °F
Dew Point 74 °F
Humidity 78%
Rainfall in
Snow Depth Not available.
UV 0 out of 12
Pollen 6.90 out of 12
Air Quality Not available.
Flu Activity Not available.
METAR KIRK 030055Z AUTO 27003KT CLR 28/22 A2985 RMK AO2 PRESRR SLP104 T02780217 PNO $

More Conditions Fewer Conditions

10-Day Weather Forecast

×

Almanac

Astronomy

Aug. 02, 2015 Rise Set
Actual Time
Civil Twilight
Nautical Twilight
Astronomical Twilight
Moon
Length of Visible Light
Length of Day
Tomorrow will be .
, % of the Moon is Illuminated

Today's Extremes

State Highs State Lows

Community

WunderPhotos

Upload Photos

1,843,491 photos uploaded!

WunderBlogs® & News

Nearby

Air Quality

  Air Quality AQ Index Pollutant
Not available.

Snow Depth

Station Depth Elevation

Earthquake Activity

City Distance Mag. Time & Date
Minimum magnitude displayed is 2.5.

Coastal Water Temperatures

Place Temperature

Stations

Nearby Weather Stations

Station Location Temp. Windchill Dew Point Humidity Wind Precip. Elev Updated Type
                   
Severe Thunderstorm Watch
Statement as of 8:03 PM CDT on August 02, 2015

Severe Thunderstorm Watch 464 remains in effect until 1100 PM CDT

MO
. Missouri counties included are

Adair Atchison Clark
Gentry Grundy Harrison
Holt Mercer Nodaway
Putnam Schuyler Scotland
Sullivan Worth